Kinrikimaru — JL6545 — position and weather

sailwx.info

Track history (hours):
 
Tides and Currents Weather Stations Pressure Air Temp Water Temp Dewpoint Dewpoint Depression Visibility Wind Speed Wind Dir Waves Ship Positions

Kinrikimaru

Last reported at 2014-Jul-31 07:14 UTC. Time now 2014-Jul-31 17:45 UTC.
Position N 33°58' E 135°01'.

Length 76 m; draft 4.5 m.

Type: Cargo ship. MMSI: 431500615.

Date/timePositionNaut miles runAvg speedWind from/ knotsBaromVisibWave heightAir tempDewpointWater temp
2014-Jul-31 07:14N 33°58' E 135°01'811.2
2014-Jul-31 06:31N 34°06' E 135°00'1212.0
2014-Jul-31 05:33N 34°17' E 134°59'1111.1
2014-Jul-31 04:34N 34°26' E 135°07'1211.7
2014-Jul-31 03:34N 34°33' E 135°18'6 2.1
2014-Jul-31 00:29N 34°35' E 135°26'0 0.0
2014-Jul-30 23:29N 34°35' E 135°26'0 0.0
2014-Jul-30 22:34N 34°35' E 135°26'0 0.0
2014-Jul-30 21:33N 34°35' E 135°26'0 0.0
2014-Jul-30 20:33N 34°35' E 135°26'1 0.5
2014-Jul-30 19:27N 34°35' E 135°25'0 0.0
2014-Jul-30 17:33N 34°35' E 135°25'0 0.0
2014-Jul-30 16:33N 34°35' E 135°25'0 0.1
2014-Jul-30 15:33N 34°35' E 135°25'6 6.0
2014-Jul-30 14:33N 34°36' E 135°18'1212.0
2014-Jul-30 13:33N 34°35' E 135°04'123 4.5
2014-Jul-29 10:09N 33°57' E 132°42'120 8.0
2014-Jul-28 19:04N 33°52' E 130°18'2013.0
2014-Jul-28 17:33N 33°42' E 129°57'  
2014-Jul-26 12:32N 33°42' E 129°57'1211.9
2014-Jul-26 11:33N 33°46' E 130°10'1211.8
2014-Jul-26 10:33N 33°51' E 130°23'117 2.4
2014-Jul-24 10:16N 33°58' E 132°43'6 0.1
2014-Jul-22 14:17N 34°01' E 132°37'  
Track history (hours):
 
Tides and Currents Weather Stations Pressure Air Temp Water Temp Dewpoint Dewpoint Depression Visibility Wind Speed Wind Dir Waves Ship Positions

Kinrikimaru

Last reported at 2014-Jul-31 07:14 UTC. Time now 2014-Jul-31 17:45 UTC.
Position N 33°58' E 135°01'.

Length 76 m; draft 4.5 m.

Type: Cargo ship. MMSI: 431500615.

Date/timePositionNaut miles runAvg speedWind from/ knotsBaromVisibWave heightAir tempDewpointWater temp
2014-Jul-31 07:14N 33°58' E 135°01'811.2
2014-Jul-31 06:31N 34°06' E 135°00'1212.0
2014-Jul-31 05:33N 34°17' E 134°59'1111.1
2014-Jul-31 04:34N 34°26' E 135°07'1211.7
2014-Jul-31 03:34N 34°33' E 135°18'6 2.1
2014-Jul-31 00:29N 34°35' E 135°26'0 0.0
2014-Jul-30 23:29N 34°35' E 135°26'0 0.0
2014-Jul-30 22:34N 34°35' E 135°26'0 0.0
2014-Jul-30 21:33N 34°35' E 135°26'0 0.0
2014-Jul-30 20:33N 34°35' E 135°26'1 0.5
2014-Jul-30 19:27N 34°35' E 135°25'0 0.0
2014-Jul-30 17:33N 34°35' E 135°25'0 0.0
2014-Jul-30 16:33N 34°35' E 135°25'0 0.1
2014-Jul-30 15:33N 34°35' E 135°25'6 6.0
2014-Jul-30 14:33N 34°36' E 135°18'1212.0
2014-Jul-30 13:33N 34°35' E 135°04'123 4.5
2014-Jul-29 10:09N 33°57' E 132°42'120 8.0
2014-Jul-28 19:04N 33°52' E 130°18'2013.0
2014-Jul-28 17:33N 33°42' E 129°57'  
2014-Jul-26 12:32N 33°42' E 129°57'1211.9
2014-Jul-26 11:33N 33°46' E 130°10'1211.8
2014-Jul-26 10:33N 33°51' E 130°23'117 2.4
2014-Jul-24 10:16N 33°58' E 132°43'6 0.1
2014-Jul-22 14:17N 34°01' E 132°37'  

Dump ship's entire track history